sensor_id;sensor_type;location;lat;lon;timestamp;pressure;altitude;pressure_sealevel;temperature;humidity
41596;BME280;27283;52.504;13.358;2024-01-25T00:01:34;101141.28;;;8.16;70.04
41596;BME280;27283;52.504;13.358;2024-01-25T00:04:06;101150.16;;;8.07;69.93
41596;BME280;27283;52.504;13.358;2024-01-25T00:06:39;101158.84;;;7.80;71.73
41596;BME280;27283;52.504;13.358;2024-01-25T00:09:12;101160.56;;;7.91;72.07
41596;BME280;27283;52.504;13.358;2024-01-25T00:11:44;101160.69;;;7.89;72.19
41596;BME280;27283;52.504;13.358;2024-01-25T00:14:18;101162.13;;;7.93;72.32
41596;BME280;27283;52.504;13.358;2024-01-25T00:16:53;101182.09;;;7.79;73.24
41596;BME280;27283;52.504;13.358;2024-01-25T00:19:25;101165.25;;;8.28;71.40
41596;BME280;27283;52.504;13.358;2024-01-25T00:21:57;101167.22;;;8.06;72.61
41596;BME280;27283;52.504;13.358;2024-01-25T00:24:30;101163.09;;;7.92;72.96
41596;BME280;27283;52.504;13.358;2024-01-25T00:27:02;101172.78;;;7.74;73.53
41596;BME280;27283;52.504;13.358;2024-01-25T00:29:34;101167.63;;;8.02;73.08
41596;BME280;27283;52.504;13.358;2024-01-25T00:32:10;101181.47;;;8.07;72.16
41596;BME280;27283;52.504;13.358;2024-01-25T00:34:43;101183.56;;;8.03;72.36
41596;BME280;27283;52.504;13.358;2024-01-25T00:37:16;101177.50;;;7.91;73.01
41596;BME280;27283;52.504;13.358;2024-01-25T00:39:49;101197.53;;;8.16;72.19
41596;BME280;27283;52.504;13.358;2024-01-25T00:42:22;101209.09;;;8.27;71.70
41596;BME280;27283;52.504;13.358;2024-01-25T00:44:56;101225.50;;;8.63;70.19
41596;BME280;27283;52.504;13.358;2024-01-25T00:47:31;101216.09;;;7.89;73.09
41596;BME280;27283;52.504;13.358;2024-01-25T00:50:07;101200.94;;;8.19;71.58
41596;BME280;27283;52.504;13.358;2024-01-25T00:52:40;101214.69;;;7.94;73.25
41596;BME280;27283;52.504;13.358;2024-01-25T00:55:14;101215.88;;;8.31;71.36
41596;BME280;27283;52.504;13.358;2024-01-25T00:57:50;101210.97;;;7.76;72.93
41596;BME280;27283;52.504;13.358;2024-01-25T01:00:25;101227.16;;;8.34;70.69
41596;BME280;27283;52.504;13.358;2024-01-25T01:03:04;101218.63;;;8.00;72.04
41596;BME280;27283;52.504;13.358;2024-01-25T01:05:37;101227.53;;;8.10;71.35
41596;BME280;27283;52.504;13.358;2024-01-25T01:08:11;101215.56;;;8.24;71.72
41596;BME280;27283;52.504;13.358;2024-01-25T01:10:43;101217.41;;;7.63;73.16
41596;BME280;27283;52.504;13.358;2024-01-25T01:13:15;101230.63;;;7.96;72.53
41596;BME280;27283;52.504;13.358;2024-01-25T01:15:48;101234.19;;;8.06;72.14
41596;BME280;27283;52.504;13.358;2024-01-25T01:18:23;101213.75;;;8.34;71.17
41596;BME280;27283;52.504;13.358;2024-01-25T01:20:58;101224.81;;;7.81;72.07
41596;BME280;27283;52.504;13.358;2024-01-25T01:23:30;101237.84;;;8.05;71.53
41596;BME280;27283;52.504;13.358;2024-01-25T01:26:04;101232.03;;;8.00;71.10
41596;BME280;27283;52.504;13.358;2024-01-25T01:28:35;101228.34;;;8.51;69.55
41596;BME280;27283;52.504;13.358;2024-01-25T01:31:08;101228.13;;;7.63;72.34
41596;BME280;27283;52.504;13.358;2024-01-25T01:33:42;101215.41;;;7.96;71.81
41596;BME280;27283;52.504;13.358;2024-01-25T01:36:14;101199.47;;;7.95;71.87
41596;BME280;27283;52.504;13.358;2024-01-25T01:38:46;101235.75;;;8.19;71.15
41596;BME280;27283;52.504;13.358;2024-01-25T01:41:18;101224.16;;;8.18;71.23
41596;BME280;27283;52.504;13.358;2024-01-25T01:43:52;101235.25;;;7.84;71.55
41596;BME280;27283;52.504;13.358;2024-01-25T01:46:31;101236.63;;;7.78;72.16
41596;BME280;27283;52.504;13.358;2024-01-25T01:49:07;101219.47;;;7.91;71.49
41596;BME280;27283;52.504;13.358;2024-01-25T01:51:41;101222.53;;;7.76;71.56
41596;BME280;27283;52.504;13.358;2024-01-25T01:54:13;101236.81;;;7.87;72.12
41596;BME280;27283;52.504;13.358;2024-01-25T01:56:45;101226.94;;;7.87;71.97
41596;BME280;27283;52.504;13.358;2024-01-25T01:59:18;101228.41;;;8.11;70.47
41596;BME280;27283;52.504;13.358;2024-01-25T02:01:50;101249.31;;;7.86;71.67
41596;BME280;27283;52.504;13.358;2024-01-25T02:04:22;101233.81;;;7.80;71.41
41596;BME280;27283;52.504;13.358;2024-01-25T02:06:55;101250.56;;;8.42;69.97
41596;BME280;27283;52.504;13.358;2024-01-25T02:09:26;101248.81;;;8.02;71.46
41596;BME280;27283;52.504;13.358;2024-01-25T02:12:02;101252.88;;;7.87;71.94
41596;BME280;27283;52.504;13.358;2024-01-25T02:14:35;101239.63;;;7.95;71.17
41596;BME280;27283;52.504;13.358;2024-01-25T02:17:07;101255.28;;;7.90;71.57
41596;BME280;27283;52.504;13.358;2024-01-25T02:19:42;101265.16;;;7.99;71.88
41596;BME280;27283;52.504;13.358;2024-01-25T02:22:18;101274.84;;;7.80;71.76
41596;BME280;27283;52.504;13.358;2024-01-25T02:24:50;101258.66;;;7.92;72.33
41596;BME280;27283;52.504;13.358;2024-01-25T02:27:25;101253.22;;;8.03;71.04
41596;BME280;27283;52.504;13.358;2024-01-25T02:29:57;101260.50;;;8.01;71.43
41596;BME280;27283;52.504;13.358;2024-01-25T02:32:29;101243.81;;;7.78;72.07
41596;BME280;27283;52.504;13.358;2024-01-25T02:35:00;101255.38;;;8.29;70.52
41596;BME280;27283;52.504;13.358;2024-01-25T02:37:35;101264.25;;;8.29;70.64
41596;BME280;27283;52.504;13.358;2024-01-25T02:40:08;101251.47;;;7.92;72.24
41596;BME280;27283;52.504;13.358;2024-01-25T02:42:40;101257.84;;;8.01;71.03
41596;BME280;27283;52.504;13.358;2024-01-25T02:45:15;101254.47;;;7.68;71.74
41596;BME280;27283;52.504;13.358;2024-01-25T02:47:47;101249.25;;;7.36;74.76
41596;BME280;27283;52.504;13.358;2024-01-25T02:50:20;101249.19;;;7.88;72.84
41596;BME280;27283;52.504;13.358;2024-01-25T02:52:55;101263.56;;;8.27;71.24
41596;BME280;27283;52.504;13.358;2024-01-25T02:55:27;101253.09;;;8.24;71.02
41596;BME280;27283;52.504;13.358;2024-01-25T02:57:59;101248.75;;;7.83;73.13
41596;BME280;27283;52.504;13.358;2024-01-25T03:00:30;101261.53;;;7.69;74.16
41596;BME280;27283;52.504;13.358;2024-01-25T03:03:04;101274.69;;;7.51;74.30
41596;BME280;27283;52.504;13.358;2024-01-25T03:05:38;101274.16;;;7.57;73.51
41596;BME280;27283;52.504;13.358;2024-01-25T03:08:14;101266.88;;;8.10;71.70
41596;BME280;27283;52.504;13.358;2024-01-25T03:10:46;101261.56;;;7.48;72.67
41596;BME280;27283;52.504;13.358;2024-01-25T03:13:18;101262.16;;;7.52;72.99
41596;BME280;27283;52.504;13.358;2024-01-25T03:15:50;101261.09;;;7.64;72.83
41596;BME280;27283;52.504;13.358;2024-01-25T03:18:22;101257.06;;;7.79;72.22
41596;BME280;27283;52.504;13.358;2024-01-25T03:21:08;101272.19;;;7.90;71.29
41596;BME280;27283;52.504;13.358;2024-01-25T03:23:44;101271.06;;;7.31;73.00
41596;BME280;27283;52.504;13.358;2024-01-25T03:26:19;101292.59;;;7.51;72.33
41596;BME280;27283;52.504;13.358;2024-01-25T03:28:51;101294.13;;;7.53;71.89
41596;BME280;27283;52.504;13.358;2024-01-25T03:31:23;101279.09;;;7.31;72.29
41596;BME280;27283;52.504;13.358;2024-01-25T03:33:56;101272.63;;;7.34;72.16
41596;BME280;27283;52.504;13.358;2024-01-25T03:36:28;101284.28;;;7.54;71.39
41596;BME280;27283;52.504;13.358;2024-01-25T03:39:03;101275.19;;;7.66;71.61
41596;BME280;27283;52.504;13.358;2024-01-25T03:41:35;101292.25;;;7.02;73.48
41596;BME280;27283;52.504;13.358;2024-01-25T03:44:08;101256.44;;;7.35;72.80
41596;BME280;27283;52.504;13.358;2024-01-25T03:46:42;101292.06;;;7.36;72.87
41596;BME280;27283;52.504;13.358;2024-01-25T03:49:20;101280.59;;;7.03;73.76
41596;BME280;27283;52.504;13.358;2024-01-25T03:51:52;101277.38;;;7.51;72.34
41596;BME280;27283;52.504;13.358;2024-01-25T03:54:27;101269.06;;;7.54;72.44
41596;BME280;27283;52.504;13.358;2024-01-25T03:56:59;101275.97;;;7.88;70.08
41596;BME280;27283;52.504;13.358;2024-01-25T03:59:31;101262.34;;;7.60;71.30
41596;BME280;27283;52.504;13.358;2024-01-25T04:02:03;101284.56;;;7.51;71.67
41596;BME280;27283;52.504;13.358;2024-01-25T04:04:36;101283.72;;;7.08;72.83
41596;BME280;27283;52.504;13.358;2024-01-25T04:07:08;101276.78;;;7.48;71.68
41596;BME280;27283;52.504;13.358;2024-01-25T04:09:44;101279.66;;;7.87;70.48
41596;BME280;27283;52.504;13.358;2024-01-25T04:12:16;101295.56;;;7.57;70.82
41596;BME280;27283;52.504;13.358;2024-01-25T04:14:48;101290.66;;;7.93;69.98
41596;BME280;27283;52.504;13.358;2024-01-25T04:17:20;101305.88;;;7.41;72.31
41596;BME280;27283;52.504;13.358;2024-01-25T04:20:02;101309.22;;;7.12;73.40
41596;BME280;27283;52.504;13.358;2024-01-25T04:22:35;101312.50;;;7.58;70.53
41596;BME280;27283;52.504;13.358;2024-01-25T04:25:10;101325.47;;;7.20;73.30
41596;BME280;27283;52.504;13.358;2024-01-25T04:27:43;101328.19;;;7.09;73.87
41596;BME280;27283;52.504;13.358;2024-01-25T04:30:15;101334.34;;;7.42;72.08
41596;BME280;27283;52.504;13.358;2024-01-25T04:32:47;101323.91;;;7.60;71.94
41596;BME280;27283;52.504;13.358;2024-01-25T04:35:19;101315.56;;;7.11;73.65
41596;BME280;27283;52.504;13.358;2024-01-25T04:37:51;101321.13;;;7.71;71.87
41596;BME280;27283;52.504;13.358;2024-01-25T04:40:26;101346.06;;;7.08;73.97
41596;BME280;27283;52.504;13.358;2024-01-25T04:42:58;101343.25;;;6.89;74.48
41596;BME280;27283;52.504;13.358;2024-01-25T04:45:31;101330.03;;;7.08;74.19
41596;BME280;27283;52.504;13.358;2024-01-25T04:48:04;101336.63;;;7.47;72.75
41596;BME280;27283;52.504;13.358;2024-01-25T04:50:41;101342.38;;;7.21;73.12
41596;BME280;27283;52.504;13.358;2024-01-25T04:53:14;101345.03;;;7.21;73.09
41596;BME280;27283;52.504;13.358;2024-01-25T04:55:53;101351.59;;;7.28;73.23
41596;BME280;27283;52.504;13.358;2024-01-25T04:58:25;101360.97;;;7.43;73.35
41596;BME280;27283;52.504;13.358;2024-01-25T05:00:58;101368.03;;;7.44;72.95
41596;BME280;27283;52.504;13.358;2024-01-25T05:03:30;101372.25;;;7.26;74.33
41596;BME280;27283;52.504;13.358;2024-01-25T05:06:03;101359.34;;;6.99;75.08
41596;BME280;27283;52.504;13.358;2024-01-25T05:08:35;101374.81;;;6.95;75.17
41596;BME280;27283;52.504;13.358;2024-01-25T05:11:10;101373.50;;;7.43;73.07
41596;BME280;27283;52.504;13.358;2024-01-25T05:13:42;101366.13;;;7.14;73.98
41596;BME280;27283;52.504;13.358;2024-01-25T05:16:14;101372.59;;;7.33;73.80
41596;BME280;27283;52.504;13.358;2024-01-25T05:18:47;101380.41;;;7.24;73.93
41596;BME280;27283;52.504;13.358;2024-01-25T05:21:37;101365.47;;;7.22;74.35
41596;BME280;27283;52.504;13.358;2024-01-25T05:24:09;101369.78;;;7.34;73.97
41596;BME280;27283;52.504;13.358;2024-01-25T05:26:44;101391.09;;;7.24;74.33
41596;BME280;27283;52.504;13.358;2024-01-25T05:29:16;101397.00;;;7.60;72.89
41596;BME280;27283;52.504;13.358;2024-01-25T05:31:49;101405.50;;;7.12;73.32
41596;BME280;27283;52.504;13.358;2024-01-25T05:34:21;101413.53;;;7.12;73.63
41596;BME280;27283;52.504;13.358;2024-01-25T05:36:54;101412.38;;;7.26;72.22
41596;BME280;27283;52.504;13.358;2024-01-25T05:39:26;101420.16;;;7.71;70.26
41596;BME280;27283;52.504;13.358;2024-01-25T05:42:04;101429.69;;;7.43;71.54
41596;BME280;27283;52.504;13.358;2024-01-25T05:44:42;101434.16;;;7.75;70.23
41596;BME280;27283;52.504;13.358;2024-01-25T05:47:14;101437.63;;;7.01;72.04
41596;BME280;27283;52.504;13.358;2024-01-25T05:49:57;101452.91;;;7.42;71.44
41596;BME280;27283;52.504;13.358;2024-01-25T05:52:34;101444.13;;;7.19;71.80
41596;BME280;27283;52.504;13.358;2024-01-25T05:55:07;101447.75;;;7.30;71.72
41596;BME280;27283;52.504;13.358;2024-01-25T05:57:43;101455.78;;;7.30;71.64
41596;BME280;27283;52.504;13.358;2024-01-25T06:00:16;101446.63;;;7.00;72.97
41596;BME280;27283;52.504;13.358;2024-01-25T06:02:50;101447.44;;;7.44;71.88
41596;BME280;27283;52.504;13.358;2024-01-25T06:05:22;101444.41;;;7.05;72.96
41596;BME280;27283;52.504;13.358;2024-01-25T06:07:57;101450.38;;;7.08;73.19
41596;BME280;27283;52.504;13.358;2024-01-25T06:10:29;101450.63;;;7.38;72.63
41596;BME280;27283;52.504;13.358;2024-01-25T06:13:05;101459.34;;;7.72;70.93
41596;BME280;27283;52.504;13.358;2024-01-25T06:15:38;101466.16;;;7.44;71.35
41596;BME280;27283;52.504;13.358;2024-01-25T06:18:13;101473.06;;;7.25;72.52
41596;BME280;27283;52.504;13.358;2024-01-25T06:20:51;101474.47;;;7.62;71.13
41596;BME280;27283;52.504;13.358;2024-01-25T06:23:24;101491.53;;;7.61;71.01
41596;BME280;27283;52.504;13.358;2024-01-25T06:25:56;101485.72;;;7.12;72.49
41596;BME280;27283;52.504;13.358;2024-01-25T06:28:31;101468.09;;;7.09;72.81
41596;BME280;27283;52.504;13.358;2024-01-25T06:31:04;101486.44;;;7.25;72.24
41596;BME280;27283;52.504;13.358;2024-01-25T06:33:37;101493.53;;;7.48;71.73
41596;BME280;27283;52.504;13.358;2024-01-25T06:36:11;101492.78;;;7.57;70.80
41596;BME280;27283;52.504;13.358;2024-01-25T06:38:47;101498.63;;;7.07;72.33
41596;BME280;27283;52.504;13.358;2024-01-25T06:41:19;101491.06;;;7.56;71.14
41596;BME280;27283;52.504;13.358;2024-01-25T06:43:54;101496.94;;;7.06;71.74
41596;BME280;27283;52.504;13.358;2024-01-25T06:46:27;101504.31;;;7.14;71.72
41596;BME280;27283;52.504;13.358;2024-01-25T06:48:59;101499.41;;;7.41;71.77
41596;BME280;27283;52.504;13.358;2024-01-25T06:51:32;101513.25;;;6.91;72.38
41596;BME280;27283;52.504;13.358;2024-01-25T06:54:04;101517.31;;;7.30;70.50
41596;BME280;27283;52.504;13.358;2024-01-25T06:56:36;101515.53;;;7.07;72.09
41596;BME280;27283;52.504;13.358;2024-01-25T06:59:14;101517.06;;;7.21;71.65
41596;BME280;27283;52.504;13.358;2024-01-25T07:01:47;101540.56;;;7.61;69.80
41596;BME280;27283;52.504;13.358;2024-01-25T07:04:22;101543.88;;;7.54;69.28
41596;BME280;27283;52.504;13.358;2024-01-25T07:06:55;101540.41;;;7.95;67.67
41596;BME280;27283;52.504;13.358;2024-01-25T07:09:28;101551.63;;;7.02;70.90
41596;BME280;27283;52.504;13.358;2024-01-25T07:12:00;101528.38;;;7.25;71.15
41596;BME280;27283;52.504;13.358;2024-01-25T07:14:37;101550.13;;;7.75;68.85
41596;BME280;27283;52.504;13.358;2024-01-25T07:17:09;101558.81;;;7.89;68.95
41596;BME280;27283;52.504;13.358;2024-01-25T07:19:44;101556.44;;;7.74;69.21
41596;BME280;27283;52.504;13.358;2024-01-25T07:22:17;101579.75;;;7.62;70.01
41596;BME280;27283;52.504;13.358;2024-01-25T07:24:51;101578.81;;;8.06;67.58
41596;BME280;27283;52.504;13.358;2024-01-25T07:27:23;101586.88;;;7.73;69.24
41596;BME280;27283;52.504;13.358;2024-01-25T07:30:00;101589.25;;;7.88;68.90
41596;BME280;27283;52.504;13.358;2024-01-25T07:32:32;101574.63;;;7.59;70.92
41596;BME280;27283;52.504;13.358;2024-01-25T07:35:05;101582.38;;;7.74;69.75
41596;BME280;27283;52.504;13.358;2024-01-25T07:37:39;101585.81;;;8.18;67.95
41596;BME280;27283;52.504;13.358;2024-01-25T07:40:12;101584.94;;;7.09;72.29
41596;BME280;27283;52.504;13.358;2024-01-25T07:42:44;101592.94;;;7.43;72.24
41596;BME280;27283;52.504;13.358;2024-01-25T07:45:19;101587.06;;;7.38;71.01
41596;BME280;27283;52.504;13.358;2024-01-25T07:47:51;101590.53;;;7.17;72.85
41596;BME280;27283;52.504;13.358;2024-01-25T07:50:40;101589.03;;;7.24;72.45
41596;BME280;27283;52.504;13.358;2024-01-25T07:53:13;101589.88;;;7.80;70.09
41596;BME280;27283;52.504;13.358;2024-01-25T07:55:46;101599.75;;;7.24;71.65
41596;BME280;27283;52.504;13.358;2024-01-25T07:58:22;101614.50;;;7.74;70.22
41596;BME280;27283;52.504;13.358;2024-01-25T08:00:57;101616.34;;;7.62;70.48
41596;BME280;27283;52.504;13.358;2024-01-25T08:03:29;101623.94;;;7.34;71.65
41596;BME280;27283;52.504;13.358;2024-01-25T08:06:03;101625.63;;;7.47;71.67
41596;BME280;27283;52.504;13.358;2024-01-25T08:08:35;101639.50;;;7.40;71.99
41596;BME280;27283;52.504;13.358;2024-01-25T08:11:08;101626.13;;;7.29;72.17
41596;BME280;27283;52.504;13.358;2024-01-25T08:13:42;101631.00;;;7.24;72.27
41596;BME280;27283;52.504;13.358;2024-01-25T08:16:18;101630.00;;;7.36;71.34
41596;BME280;27283;52.504;13.358;2024-01-25T08:18:52;101632.09;;;7.33;71.23
41596;BME280;27283;52.504;13.358;2024-01-25T08:21:33;101635.94;;;7.62;70.36
41596;BME280;27283;52.504;13.358;2024-01-25T08:24:06;101629.75;;;7.51;70.38
41596;BME280;27283;52.504;13.358;2024-01-25T08:26:38;101646.94;;;7.14;72.15
41596;BME280;27283;52.504;13.358;2024-01-25T08:29:11;101657.97;;;7.09;71.74
41596;BME280;27283;52.504;13.358;2024-01-25T08:31:47;101670.66;;;7.41;71.47
41596;BME280;27283;52.504;13.358;2024-01-25T08:34:19;101651.66;;;6.77;72.78
41596;BME280;27283;52.504;13.358;2024-01-25T08:36:51;101676.09;;;6.95;72.51
41596;BME280;27283;52.504;13.358;2024-01-25T08:39:24;101687.59;;;7.86;69.43
41596;BME280;27283;52.504;13.358;2024-01-25T08:41:57;101683.63;;;7.01;72.45
41596;BME280;27283;52.504;13.358;2024-01-25T08:44:30;101696.28;;;7.10;72.25
41596;BME280;27283;52.504;13.358;2024-01-25T08:47:07;101702.28;;;8.03;68.96
41596;BME280;27283;52.504;13.358;2024-01-25T08:49:40;101698.47;;;7.50;71.49
41596;BME280;27283;52.504;13.358;2024-01-25T08:52:13;101697.66;;;7.38;71.06
41596;BME280;27283;52.504;13.358;2024-01-25T08:54:48;101696.28;;;7.21;71.62
41596;BME280;27283;52.504;13.358;2024-01-25T08:57:23;101684.72;;;6.98;72.50
41596;BME280;27283;52.504;13.358;2024-01-25T08:59:55;101709.63;;;8.01;69.40
41596;BME280;27283;52.504;13.358;2024-01-25T09:02:30;101699.06;;;7.76;69.26
41596;BME280;27283;52.504;13.358;2024-01-25T09:05:03;101702.97;;;7.84;68.62
41596;BME280;27283;52.504;13.358;2024-01-25T09:07:37;101730.63;;;8.60;66.22
41596;BME280;27283;52.504;13.358;2024-01-25T09:10:11;101719.09;;;8.05;68.34
41596;BME280;27283;52.504;13.358;2024-01-25T09:12:50;101716.75;;;7.56;69.23
41596;BME280;27283;52.504;13.358;2024-01-25T09:15:23;101740.69;;;7.69;69.32
41596;BME280;27283;52.504;13.358;2024-01-25T09:18:01;101741.13;;;7.97;69.14
41596;BME280;27283;52.504;13.358;2024-01-25T09:20:50;101749.16;;;7.97;69.26
41596;BME280;27283;52.504;13.358;2024-01-25T09:23:23;101750.56;;;7.69;70.51
41596;BME280;27283;52.504;13.358;2024-01-25T09:25:55;101753.09;;;7.59;70.54
41596;BME280;27283;52.504;13.358;2024-01-25T09:28:29;101743.72;;;7.42;71.34
41596;BME280;27283;52.504;13.358;2024-01-25T09:31:01;101759.44;;;7.69;70.79
41596;BME280;27283;52.504;13.358;2024-01-25T09:33:39;101749.16;;;8.08;68.47
41596;BME280;27283;52.504;13.358;2024-01-25T09:36:12;101747.38;;;8.30;68.33
41596;BME280;27283;52.504;13.358;2024-01-25T09:38:44;101753.06;;;8.04;67.91
41596;BME280;27283;52.504;13.358;2024-01-25T09:41:20;101755.63;;;7.83;69.54
41596;BME280;27283;52.504;13.358;2024-01-25T09:43:53;101768.19;;;7.49;70.89
41596;BME280;27283;52.504;13.358;2024-01-25T09:46:26;101771.88;;;8.37;67.91
41596;BME280;27283;52.504;13.358;2024-01-25T09:49:34;101779.50;;;7.86;69.06
41596;BME280;27283;52.504;13.358;2024-01-25T09:52:12;101762.59;;;7.40;71.36
41596;BME280;27283;52.504;13.358;2024-01-25T09:54:45;101791.22;;;8.40;67.85
41596;BME280;27283;52.504;13.358;2024-01-25T09:57:22;101783.16;;;7.51;70.98
41596;BME280;27283;52.504;13.358;2024-01-25T09:59:56;101807.59;;;8.26;67.88
41596;BME280;27283;52.504;13.358;2024-01-25T10:02:29;101800.13;;;8.29;68.31
41596;BME280;27283;52.504;13.358;2024-01-25T10:05:07;101797.72;;;8.15;68.43
41596;BME280;27283;52.504;13.358;2024-01-25T10:07:41;101779.34;;;8.10;68.22
41596;BME280;27283;52.504;13.358;2024-01-25T10:10:17;101797.03;;;7.90;69.45
41596;BME280;27283;52.504;13.358;2024-01-25T10:12:51;101810.78;;;8.08;69.38
41596;BME280;27283;52.504;13.358;2024-01-25T10:15:27;101805.31;;;7.87;69.58
41596;BME280;27283;52.504;13.358;2024-01-25T10:18:16;101803.38;;;7.78;70.82
41596;BME280;27283;52.504;13.358;2024-01-25T10:21:03;101815.41;;;7.95;69.54
41596;BME280;27283;52.504;13.358;2024-01-25T10:23:36;101815.50;;;8.16;68.56
41596;BME280;27283;52.504;13.358;2024-01-25T10:26:09;101806.28;;;7.97;68.79
41596;BME280;27283;52.504;13.358;2024-01-25T10:28:42;101812.06;;;8.48;67.25
41596;BME280;27283;52.504;13.358;2024-01-25T10:31:16;101807.97;;;7.87;69.38
41596;BME280;27283;52.504;13.358;2024-01-25T10:33:49;101813.22;;;8.66;66.96
41596;BME280;27283;52.504;13.358;2024-01-25T10:36:26;101813.34;;;8.65;67.03
41596;BME280;27283;52.504;13.358;2024-01-25T10:39:03;101804.66;;;8.29;67.95
41596;BME280;27283;52.504;13.358;2024-01-25T10:41:37;101809.75;;;8.32;68.01
41596;BME280;27283;52.504;13.358;2024-01-25T10:44:11;101827.44;;;7.67;69.31
41596;BME280;27283;52.504;13.358;2024-01-25T10:46:50;101822.66;;;8.27;68.42
41596;BME280;27283;52.504;13.358;2024-01-25T10:49:44;101828.81;;;8.06;69.39
41596;BME280;27283;52.504;13.358;2024-01-25T10:52:23;101825.16;;;7.73;70.56
41596;BME280;27283;52.504;13.358;2024-01-25T10:54:57;101840.09;;;7.65;71.01
41596;BME280;27283;52.504;13.358;2024-01-25T10:57:35;101822.22;;;7.76;70.88
41596;BME280;27283;52.504;13.358;2024-01-25T11:00:10;101833.13;;;8.30;68.99
41596;BME280;27283;52.504;13.358;2024-01-25T11:02:46;101823.06;;;8.11;70.31
41596;BME280;27283;52.504;13.358;2024-01-25T11:05:19;101847.50;;;7.50;71.31
41596;BME280;27283;52.504;13.358;2024-01-25T11:07:54;101842.16;;;8.51;68.18
41596;BME280;27283;52.504;13.358;2024-01-25T11:10:28;101836.56;;;8.32;68.33
41596;BME280;27283;52.504;13.358;2024-01-25T11:13:01;101835.69;;;8.43;67.96
41596;BME280;27283;52.504;13.358;2024-01-25T11:15:36;101827.63;;;8.54;67.98
41596;BME280;27283;52.504;13.358;2024-01-25T11:18:20;101829.72;;;8.50;67.28
41596;BME280;27283;52.504;13.358;2024-01-25T11:21:04;101829.28;;;8.11;68.56
41596;BME280;27283;52.504;13.358;2024-01-25T11:23:43;101837.66;;;8.29;67.60
41596;BME280;27283;52.504;13.358;2024-01-25T11:26:16;101836.50;;;8.66;66.51
41596;BME280;27283;52.504;13.358;2024-01-25T11:28:48;101838.19;;;8.99;64.21
41596;BME280;27283;52.504;13.358;2024-01-25T11:31:21;101831.41;;;8.40;67.77
41596;BME280;27283;52.504;13.358;2024-01-25T11:33:59;101835.00;;;8.07;68.97
41596;BME280;27283;52.504;13.358;2024-01-25T11:36:32;101837.31;;;8.78;65.37
41596;BME280;27283;52.504;13.358;2024-01-25T11:39:08;101834.56;;;8.89;65.46
41596;BME280;27283;52.504;13.358;2024-01-25T11:41:43;101838.16;;;9.32;64.08
41596;BME280;27283;52.504;13.358;2024-01-25T11:44:20;101842.69;;;8.66;64.86
41596;BME280;27283;52.504;13.358;2024-01-25T11:46:56;101845.88;;;8.72;66.11
41596;BME280;27283;52.504;13.358;2024-01-25T11:49:34;101848.28;;;9.07;66.25
41596;BME280;27283;52.504;13.358;2024-01-25T11:52:09;101852.41;;;9.11;63.29
41596;BME280;27283;52.504;13.358;2024-01-25T11:54:45;101853.78;;;8.73;64.55
41596;BME280;27283;52.504;13.358;2024-01-25T11:57:21;101855.13;;;8.79;64.66
41596;BME280;27283;52.504;13.358;2024-01-25T11:59:55;101860.19;;;8.49;65.29
41596;BME280;27283;52.504;13.358;2024-01-25T12:02:29;101866.06;;;8.87;65.24
41596;BME280;27283;52.504;13.358;2024-01-25T12:05:03;101860.59;;;9.10;64.42
41596;BME280;27283;52.504;13.358;2024-01-25T12:07:36;101858.09;;;9.60;61.63
41596;BME280;27283;52.504;13.358;2024-01-25T12:10:15;101863.00;;;9.45;62.45
41596;BME280;27283;52.504;13.358;2024-01-25T12:12:49;101871.34;;;8.77;65.90
41596;BME280;27283;52.504;13.358;2024-01-25T12:15:22;101859.56;;;8.57;65.18
41596;BME280;27283;52.504;13.358;2024-01-25T12:18:10;101870.34;;;9.11;64.50
41596;BME280;27283;52.504;13.358;2024-01-25T12:20:48;101861.66;;;8.86;64.16
41596;BME280;27283;52.504;13.358;2024-01-25T12:23:21;101862.44;;;9.09;63.99
41596;BME280;27283;52.504;13.358;2024-01-25T12:25:59;101863.16;;;9.11;63.11
41596;BME280;27283;52.504;13.358;2024-01-25T12:28:32;101862.22;;;9.01;63.53
41596;BME280;27283;52.504;13.358;2024-01-25T12:31:06;101862.84;;;8.93;63.50
41596;BME280;27283;52.504;13.358;2024-01-25T12:33:41;101873.59;;;9.26;62.17
41596;BME280;27283;52.504;13.358;2024-01-25T12:36:14;101876.69;;;9.94;60.31
41596;BME280;27283;52.504;13.358;2024-01-25T12:38:48;101869.75;;;9.07;62.77
41596;BME280;27283;52.504;13.358;2024-01-25T12:41:23;101872.69;;;9.88;61.30
41596;BME280;27283;52.504;13.358;2024-01-25T12:43:55;101872.41;;;9.91;60.38
41596;BME280;27283;52.504;13.358;2024-01-25T12:46:28;101863.09;;;9.86;60.46
41596;BME280;27283;52.504;13.358;2024-01-25T12:49:43;101862.31;;;9.32;63.07
41596;BME280;27283;52.504;13.358;2024-01-25T12:52:16;101857.22;;;9.29;62.42
41596;BME280;27283;52.504;13.358;2024-01-25T12:54:51;101861.00;;;9.26;63.48
41596;BME280;27283;52.504;13.358;2024-01-25T12:57:27;101864.09;;;9.21;63.63
41596;BME280;27283;52.504;13.358;2024-01-25T13:00:00;101862.41;;;8.77;66.12
41596;BME280;27283;52.504;13.358;2024-01-25T13:02:46;101865.84;;;9.74;62.50
41596;BME280;27283;52.504;13.358;2024-01-25T13:05:18;101866.75;;;8.45;66.89
41596;BME280;27283;52.504;13.358;2024-01-25T13:07:54;101859.88;;;9.71;64.06
41596;BME280;27283;52.504;13.358;2024-01-25T13:10:26;101862.91;;;10.08;61.51
41596;BME280;27283;52.504;13.358;2024-01-25T13:13:04;101862.41;;;8.77;66.92
41596;BME280;27283;52.504;13.358;2024-01-25T13:15:36;101854.56;;;9.81;63.04
41596;BME280;27283;52.504;13.358;2024-01-25T13:18:17;101848.44;;;10.00;61.61
41596;BME280;27283;52.504;13.358;2024-01-25T13:20:51;101848.16;;;9.72;62.44
41596;BME280;27283;52.504;13.358;2024-01-25T13:23:24;101849.22;;;9.38;63.32
41596;BME280;27283;52.504;13.358;2024-01-25T13:25:56;101834.56;;;8.89;65.74
41596;BME280;27283;52.504;13.358;2024-01-25T13:28:32;101840.44;;;9.15;64.64